Weather History for Superior, WI

Change the Weather History Date:

Tuesday, January 22, 2013

  Actual Average Record
Temperature  
Mean Temperature -9 °F -  
Max Temperature 1 °F 26 °F 45 °F (1981)
Min Temperature -19 °F 6 °F -25 °F (1954)
Degree Days  
Heating Degree Days 74    
Moisture  
Dew Point -19 °F    
Average Humidity 63    
Maximum Humidity 73    
Minimum Humidity 49    
Precipitation  
Precipitation 0.00 in - - ()
Sea Level Pressure  
Sea Level Pressure 30.29 in    
Wind  
Wind Speed 7 mph (WSW)    
Max Wind Speed 14 mph    
Max Gust Speed 18 mph    
Visibility 10 miles    
Events      
Averages and records for this station are not official NWS values.
T = Trace of Precipitation, MM = Missing Value Source: NWS Daily Summary

Daily Weather History Graph

Daily Weather History Graph

Search for Another Location

Airport:

Trip Planner

Search our weather history database for the weather conditions in past years. The results will help you decide how hot, cold, wet, or windy it might be!

Date:

Astronomy

Jan. 22, 2013 Rise Set
Actual Time 7:43 AM CST 4:57 PM CST
Civil Twilight 7:09 AM CST 5:30 PM CST
Nautical Twilight 6:32 AM CST 6:07 PM CST
Astronomical Twilight 5:56 AM CST 6:43 PM CST
Moon 1:18 PM CST (1/22) 4:07 AM CST (1/22)
Length of Visible Light 10h 21m
Length of Day
9h 14m
Waxing Gibbous, 83% of the Moon is Illuminated
Jan 22
Waxing Gibbous
Jan 26
Full
Feb 3
Last Quarter
Feb 10
New
Feb 17
First Quarter

Hourly Weather History & Observations

Time (CST) Temp. Windchill Dew Point Humidity Pressure Visibility Wind Dir Wind Speed Gust Speed Precip Events Conditions
12:15 AM -13.9 °F -29.7 °F -22.0 °F 67% 30.27 in 10.0 mi NW 6.9 mph - N/A   Clear
12:35 AM -14.8 °F -30.8 °F -23.1 °F 66% 30.28 in 10.0 mi NW 6.9 mph - N/A   Clear
12:55 AM -14.1 °F -29.9 °F -22.0 °F 68% 30.28 in 10.0 mi WNW 6.9 mph - N/A   Clear
1:15 AM -14.3 °F -31.5 °F -22.4 °F 67% 30.29 in 10.0 mi WNW 8.1 mph - N/A   Clear
1:55 AM -14.8 °F -33.5 °F -22.7 °F 68% 30.30 in 10.0 mi NW 9.2 mph - N/A   Clear
2:15 AM -15.7 °F -33.3 °F -23.3 °F 69% 30.30 in 10.0 mi NW 8.1 mph - N/A   Clear
2:35 AM -15.9 °F -30.4 °F -23.8 °F 67% 30.31 in 10.0 mi WNW 5.8 mph - N/A   Clear
2:55 AM -16.1 °F -28.6 °F -24.0 °F 67% 30.31 in 10.0 mi West 4.6 mph - N/A   Clear
3:15 AM -16.4 °F -31.0 °F -24.3 °F 67% 30.31 in 10.0 mi West 5.8 mph - N/A   Clear
3:35 AM -16.6 °F -29.3 °F -24.0 °F 69% 30.32 in 10.0 mi West 4.6 mph - N/A   Clear
3:55 AM -16.8 °F -29.5 °F -24.5 °F 68% 30.32 in 10.0 mi West 4.6 mph - N/A   Clear
4:15 AM -17.0 °F -31.7 °F -24.3 °F 69% 30.32 in 10.0 mi West 5.8 mph - N/A   Clear
4:35 AM -17.0 °F -34.8 °F -24.5 °F 69% 30.32 in 10.0 mi West 8.1 mph - N/A   Clear
4:55 AM -16.6 °F -34.4 °F -24.0 °F 69% 30.32 in 10.0 mi West 8.1 mph - N/A   Clear
5:15 AM -17.1 °F -33.6 °F -24.5 °F 69% 30.33 in 10.0 mi West 6.9 mph - N/A   Clear
5:35 AM -17.1 °F -31.9 °F -24.3 °F 70% 30.34 in 10.0 mi West 5.8 mph - N/A   Clear
5:55 AM -17.1 °F -31.9 °F -24.5 °F 69% 30.34 in 10.0 mi West 5.8 mph - N/A   Clear
6:15 AM -17.5 °F -32.3 °F -24.7 °F 70% 30.34 in 10.0 mi West 5.8 mph - N/A   Clear
6:35 AM -18.2 °F -28.7 °F -25.1 °F 71% 30.34 in 10.0 mi SW 3.5 mph - N/A   Clear
6:55 AM -18.6 °F -33.6 °F -24.9 °F 73% 30.34 in 10.0 mi WSW 5.8 mph - N/A   Clear
7:15 AM -19.5 °F -30.1 °F -25.8 °F 73% 30.34 in 10.0 mi WSW 3.5 mph - N/A   Clear
7:35 AM -19.3 °F -34.5 °F -25.6 °F 73% 30.34 in 10.0 mi SW 5.8 mph - N/A   Clear
7:55 AM -19.5 °F -34.7 °F -25.8 °F 73% 30.33 in 10.0 mi SW 5.8 mph - N/A   Clear
8:15 AM -19.3 °F -34.5 °F -25.6 °F 73% 30.33 in 10.0 mi SW 5.8 mph - N/A   Clear
8:35 AM -17.9 °F -32.8 °F -24.7 °F 71% 30.33 in 10.0 mi SW 5.8 mph - N/A   Clear
8:55 AM -17.0 °F -29.7 °F -24.0 °F 70% 30.33 in 10.0 mi SW 4.6 mph - N/A   Clear
9:15 AM -15.3 °F -29.8 °F -22.9 °F 69% 30.34 in 10.0 mi SW 5.8 mph - N/A   Clear
9:35 AM -14.1 °F -28.3 °F -22.2 °F 67% 30.36 in 10.0 mi WSW 5.8 mph - N/A   Clear
9:55 AM -13.9 °F -29.7 °F -22.2 °F 66% 30.36 in 10.0 mi SW 6.9 mph - N/A   Clear
10:15 AM -12.5 °F -28.0 °F -21.1 °F 65% 30.36 in 10.0 mi SW 6.9 mph - N/A   Clear
10:35 AM -12.1 °F -28.9 °F -20.7 °F 65% 30.36 in 10.0 mi SW 8.1 mph - N/A   Clear
10:55 AM -10.1 °F -23.6 °F -19.8 °F 62% 30.36 in 10.0 mi WSW 5.8 mph - N/A   Clear
11:15 AM -8.7 °F -23.4 °F -19.1 °F 60% 30.34 in 10.0 mi SW 6.9 mph - N/A   Clear
11:35 AM -7.6 °F -20.6 °F -18.6 °F 59% 30.33 in 10.0 mi SW 5.8 mph - N/A   Clear
11:55 AM -6.0 °F -21.5 °F -17.5 °F 58% 30.32 in 10.0 mi SW 8.1 mph - N/A   Clear
12:15 PM -5.1 °F -20.4 °F -16.8 °F 57% 30.32 in 10.0 mi West 8.1 mph - N/A   Clear
12:35 PM -4.0 °F -20.2 °F -16.4 °F 55% 30.31 in 10.0 mi West 9.2 mph - N/A   Clear
12:55 PM -3.1 °F -16.7 °F -15.9 °F 54% 30.29 in 10.0 mi WSW 6.9 mph - N/A   Clear
1:15 PM -1.3 °F -15.7 °F -14.8 °F 53% 30.29 in 10.0 mi West 8.1 mph - N/A   Clear
1:35 PM -1.8 °F -20.2 °F -15.2 °F 53% 30.29 in 10.0 mi WSW 12.7 mph - N/A   Clear
1:55 PM -1.5 °F -19.0 °F -15.0 °F 53% 30.29 in 10.0 mi WSW 11.5 mph 16.1 mph N/A   Clear
2:15 PM -0.2 °F -15.5 °F -14.4 °F 51% 30.28 in 10.0 mi West 9.2 mph - N/A   Clear
2:35 PM -0.4 °F -16.7 °F -14.8 °F 51% 30.28 in 10.0 mi West 10.4 mph - N/A   Clear
2:55 PM 0.5 °F -15.6 °F -14.3 °F 50% 30.28 in 10.0 mi WSW 10.4 mph - N/A   Clear
3:15 PM 0.5 °F -18.0 °F -14.3 °F 50% 30.28 in 10.0 mi West 13.8 mph - N/A   Clear
3:35 PM 0.9 °F -16.0 °F -14.3 °F 49% 30.28 in 10.0 mi WSW 11.5 mph 18.4 mph N/A   Clear
3:55 PM 1.2 °F -12.7 °F -13.9 °F 49% 30.27 in 10.0 mi WSW 8.1 mph - N/A   Clear
4:15 PM 0.7 °F -14.4 °F -14.1 °F 50% 30.27 in 10.0 mi West 9.2 mph 16.1 mph N/A   Clear
4:35 PM -0.6 °F -14.9 °F -14.1 °F 53% 30.26 in 10.0 mi WSW 8.1 mph - N/A   Clear
4:55 PM -0.9 °F -14.1 °F -14.3 °F 53% 30.27 in 10.0 mi WSW 6.9 mph - N/A   Clear
5:15 PM -2.2 °F -12.5 °F -14.8 °F 55% 30.26 in 10.0 mi WSW 4.6 mph - N/A   Clear
5:35 PM -2.2 °F -12.5 °F -14.6 °F 56% 30.27 in 10.0 mi WSW 4.6 mph - N/A   Clear
5:55 PM -1.8 °F -16.4 °F -14.1 °F 56% 30.26 in 10.0 mi WSW 8.1 mph - N/A   Clear
6:15 PM -1.7 °F -14.9 °F -13.9 °F 56% 30.26 in 10.0 mi SW 6.9 mph - N/A   Clear
6:35 PM -1.7 °F -14.9 °F -13.5 °F 57% 30.25 in 10.0 mi SW 6.9 mph - N/A   Clear
6:55 PM -2.2 °F -16.8 °F -13.5 °F 59% 30.25 in 10.0 mi SW 8.1 mph - N/A   Clear
7:15 PM -2.7 °F -14.8 °F -13.5 °F 60% 30.25 in 10.0 mi SW 5.8 mph - N/A   Clear
7:35 PM -3.1 °F -16.7 °F -13.4 °F 62% 30.25 in 10.0 mi SW 6.9 mph - N/A   Clear
7:55 PM -3.5 °F -15.7 °F -13.4 °F 63% 30.24 in 10.0 mi SW 5.8 mph - N/A   Clear
8:15 PM -3.6 °F -18.6 °F -13.2 °F 64% 30.24 in 10.0 mi SW 8.1 mph - N/A   Clear
8:35 PM -3.6 °F -19.7 °F -13.4 °F 63% 30.23 in 10.0 mi SW 9.2 mph - N/A   Clear
8:55 PM -4.0 °F -17.8 °F -13.7 °F 63% 30.23 in 10.0 mi SW 6.9 mph - N/A   Scattered Clouds
9:15 PM -4.2 °F -16.5 °F -13.5 °F 64% 30.23 in 10.0 mi SW 5.8 mph - N/A   Clear
9:35 PM -4.9 °F -15.6 °F -13.5 °F 66% 30.23 in 10.0 mi WSW 4.6 mph - N/A   Clear
9:55 PM -5.4 °F -18.0 °F -14.1 °F 66% 30.23 in 10.0 mi WSW 5.8 mph - N/A   Clear
10:15 PM -5.8 °F -16.7 °F -14.1 °F 67% 30.22 in 10.0 mi WSW 4.6 mph - N/A   Clear
10:35 PM -6.0 °F -20.1 °F -14.1 °F 68% 30.22 in 10.0 mi WSW 6.9 mph - N/A   Clear
10:55 PM -5.6 °F -19.7 °F -13.7 °F 68% 30.22 in 10.0 mi SW 6.9 mph - N/A   Scattered Clouds
11:15 PM -4.5 °F -19.7 °F -12.6 °F 68% 30.21 in 10.0 mi SW 8.1 mph - N/A   Overcast
11:35 PM -4.2 °F -20.4 °F -12.3 °F 68% 30.21 in 10.0 mi SW 9.2 mph - N/A   Overcast
11:55 PM -4.2 °F -21.4 °F -12.3 °F 68% 30.20 in 10.0 mi SW 10.4 mph - N/A   Overcast